createdAt,value
2023-04-27T00:01:27.072Z,1.84
2023-04-27T00:03:57.130Z,1.83
2023-04-27T00:06:28.478Z,1.81
2023-04-27T00:08:58.256Z,1.80
2023-04-27T00:11:24.924Z,1.87
2023-04-27T00:13:53.849Z,1.84
2023-04-27T00:16:25.171Z,1.88
2023-04-27T00:18:52.262Z,1.91
2023-04-27T00:21:18.774Z,1.85
2023-04-27T00:23:45.726Z,1.69
2023-04-27T00:26:12.268Z,1.71
2023-04-27T00:28:38.743Z,1.69
2023-04-27T00:31:05.791Z,1.56
2023-04-27T00:33:32.376Z,1.39
2023-04-27T00:36:04.606Z,1.32
2023-04-27T00:38:31.246Z,1.41
2023-04-27T00:41:07.656Z,1.44
2023-04-27T00:43:42.622Z,1.47
2023-04-27T00:46:10.889Z,1.48
2023-04-27T00:48:38.007Z,1.48
2023-04-27T00:51:05.544Z,1.51
2023-04-27T00:53:32.898Z,1.48
2023-04-27T00:56:01.679Z,1.29
2023-04-27T00:58:33.052Z,1.22
2023-04-27T01:01:03.760Z,1.23
2023-04-27T01:03:32.782Z,1.23
2023-04-27T01:06:01.955Z,1.19
2023-04-27T01:08:29.330Z,1.21
2023-04-27T01:10:55.888Z,1.21
2023-04-27T01:13:22.526Z,1.21
2023-04-27T01:15:51.497Z,1.21
2023-04-27T01:18:20.379Z,1.25
2023-04-27T01:20:49.828Z,1.21
2023-04-27T01:23:17.563Z,1.12
2023-04-27T01:25:49.298Z,0.98
2023-04-27T01:28:15.850Z,0.85
2023-04-27T01:30:42.359Z,0.75
2023-04-27T01:33:11.367Z,0.73
2023-04-27T01:35:38.111Z,0.75
2023-04-27T01:38:04.612Z,0.78
2023-04-27T01:40:31.089Z,0.86
2023-04-27T01:43:02.423Z,0.95
2023-04-27T01:45:28.928Z,1.01
2023-04-27T01:47:56.077Z,1.04
2023-04-27T01:50:22.614Z,1.06
2023-04-27T01:52:51.276Z,0.98
2023-04-27T01:55:20.475Z,1.01
2023-04-27T01:57:47.024Z,0.97
2023-04-27T02:00:14.112Z,0.91
2023-04-27T02:02:40.735Z,0.82
2023-04-27T02:05:07.704Z,0.74
2023-04-27T02:07:34.163Z,0.72
2023-04-27T02:10:05.464Z,0.66
2023-04-27T02:12:32.079Z,0.67
2023-04-27T02:14:58.585Z,0.63
2023-04-27T02:17:25.049Z,0.62
2023-04-27T02:19:56.500Z,0.62
2023-04-27T02:22:23.212Z,0.61
2023-04-27T02:24:49.689Z,0.67
2023-04-27T02:27:16.281Z,0.66
2023-04-27T02:29:45.420Z,0.58
2023-04-27T02:32:14.770Z,0.48
2023-04-27T02:34:43.707Z,0.47
2023-04-27T02:37:10.153Z,0.48
2023-04-27T02:39:36.716Z,0.52
2023-04-27T02:42:03.553Z,0.47
2023-04-27T02:44:30.019Z,0.33
2023-04-27T02:46:56.500Z,0.22
2023-04-27T02:49:25.696Z,0.12
2023-04-27T02:51:52.165Z,0.07
2023-04-27T02:54:18.693Z,0.13
2023-04-27T02:56:45.140Z,0.15
2023-04-27T02:59:11.813Z,0.22
2023-04-27T03:01:38.810Z,0.29
2023-04-27T03:04:05.609Z,0.23
2023-04-27T03:06:34.636Z,0.23
2023-04-27T03:09:03.691Z,0.31
2023-04-27T03:11:32.701Z,0.31
2023-04-27T03:14:01.761Z,0.26
2023-04-27T03:16:28.239Z,0.21
2023-04-27T03:18:57.389Z,0.26
2023-04-27T03:21:23.954Z,0.28
2023-04-27T03:23:52.676Z,0.24
2023-04-27T03:26:21.753Z,0.23
2023-04-27T03:28:50.689Z,0.24
2023-04-27T03:31:19.625Z,0.28
2023-04-27T03:33:48.661Z,0.28
2023-04-27T03:36:17.388Z,0.20
2023-04-27T03:38:43.882Z,0.24
2023-04-27T03:41:15.177Z,0.33
2023-04-27T03:43:41.638Z,0.36
2023-04-27T03:46:08.519Z,0.35
2023-04-27T03:48:37.545Z,0.35
2023-04-27T03:51:04.081Z,0.30
2023-04-27T03:53:33.073Z,0.28
2023-04-27T03:56:01.995Z,0.24
2023-04-27T03:58:30.783Z,0.22
2023-04-27T04:00:57.307Z,0.16
2023-04-27T04:03:24.044Z,0.15
2023-04-27T04:05:53.162Z,0.20
2023-04-27T04:08:22.536Z,0.26
2023-04-27T04:10:51.366Z,0.29
2023-04-27T04:13:17.878Z,0.33
2023-04-27T04:15:44.428Z,0.35
2023-04-27T04:18:11.131Z,0.31
2023-04-27T04:20:37.658Z,0.23
2023-04-27T04:23:07.154Z,0.26
2023-04-27T04:25:36.388Z,0.28
2023-04-27T04:28:08.037Z,0.24
2023-04-27T04:30:36.754Z,0.24
2023-04-27T04:33:03.561Z,0.31
2023-04-27T04:35:30.085Z,0.36
2023-04-27T04:38:01.449Z,0.36
2023-04-27T04:40:28.015Z,0.42
2023-04-27T04:42:54.561Z,0.46
2023-04-27T04:45:25.993Z,0.50
2023-04-27T04:47:54.398Z,0.55
2023-04-27T04:50:21.134Z,0.57
2023-04-27T04:52:47.628Z,0.59
2023-04-27T04:55:17.184Z,0.63
2023-04-27T04:57:43.739Z,0.60
2023-04-27T05:00:12.719Z,0.64
2023-04-27T05:02:44.026Z,0.65
2023-04-27T05:05:12.975Z,0.74
2023-04-27T05:07:39.484Z,0.79
2023-04-27T05:10:10.765Z,0.85
2023-04-27T05:12:39.496Z,0.99
2023-04-27T05:15:06.563Z,2.07
2023-04-27T05:17:33.065Z,3.36
2023-04-27T05:20:01.882Z,4.36
2023-04-27T05:22:28.333Z,4.96
2023-04-27T05:24:55.502Z,5.58
2023-04-27T05:27:22.146Z,5.91
2023-04-27T05:29:48.677Z,6.01
2023-04-27T05:32:20.002Z,6.36
2023-04-27T05:34:51.284Z,6.91
2023-04-27T05:37:20.414Z,7.54
2023-04-27T05:39:49.170Z,8.15
2023-04-27T05:42:15.826Z,8.51
2023-04-27T05:44:43.184Z,8.46
2023-04-27T05:47:09.650Z,8.86
2023-04-27T05:49:38.304Z,9.12
2023-04-27T05:52:07.157Z,9.17
2023-04-27T05:54:33.590Z,9.21
2023-04-27T05:57:02.758Z,9.99
2023-04-27T05:59:31.493Z,10.80
2023-04-27T06:02:00.472Z,10.21
2023-04-27T06:04:27.190Z,10.09
2023-04-27T06:06:58.710Z,10.38
2023-04-27T06:09:25.755Z,10.53
2023-04-27T06:11:54.233Z,11.61
2023-04-27T06:14:22.983Z,11.98
2023-04-27T06:16:49.445Z,12.43
2023-04-27T06:19:18.386Z,12.88
2023-04-27T06:21:44.835Z,12.98
2023-04-27T06:24:16.055Z,12.56
2023-04-27T06:26:42.536Z,12.10
2023-04-27T06:29:08.969Z,11.71
2023-04-27T06:31:35.451Z,12.11
2023-04-27T06:34:02.075Z,11.93
2023-04-27T06:36:28.552Z,11.53
2023-04-27T06:38:56.400Z,11.56
2023-04-27T06:41:23.205Z,11.47
2023-04-27T06:43:52.372Z,11.59
2023-04-27T06:46:19.893Z,11.97
2023-04-27T06:48:48.849Z,12.24
2023-04-27T06:51:17.826Z,12.36
2023-04-27T06:53:44.260Z,12.77
2023-04-27T06:56:11.777Z,13.06
2023-04-27T06:58:40.601Z,12.97
2023-04-27T07:01:07.151Z,12.84
2023-04-27T07:03:39.410Z,12.88
2023-04-27T07:06:08.335Z,12.33
2023-04-27T07:08:35.029Z,12.42
2023-04-27T07:11:04.015Z,12.94
2023-04-27T07:13:30.528Z,13.30
2023-04-27T07:16:00.450Z,13.56
2023-04-27T07:18:30.463Z,13.65
2023-04-27T07:20:58.039Z,13.65
2023-04-27T07:23:24.670Z,13.55
2023-04-27T07:25:56.331Z,13.69
2023-04-27T07:28:24.181Z,13.83
2023-04-27T07:30:55.597Z,14.13
2023-04-27T07:33:22.419Z,14.40
2023-04-27T07:35:50.334Z,14.70
2023-04-27T07:38:17.524Z,14.50
2023-04-27T07:40:45.321Z,14.16
2023-04-27T07:43:15.765Z,14.04
2023-04-27T07:45:45.775Z,14.04
2023-04-27T07:48:12.358Z,13.87
2023-04-27T07:50:41.257Z,13.82
2023-04-27T07:53:10.041Z,13.85
2023-04-27T07:55:38.885Z,14.03
2023-04-27T07:58:07.756Z,14.31
2023-04-27T08:00:36.499Z,14.54
2023-04-27T08:03:05.364Z,14.23
2023-04-27T08:05:34.596Z,13.79
2023-04-27T08:08:04.603Z,14.18
2023-04-27T08:10:33.678Z,14.58
2023-04-27T08:13:00.164Z,14.61
2023-04-27T08:15:31.255Z,14.44
2023-04-27T08:17:57.932Z,14.22
2023-04-27T08:20:24.525Z,13.93
2023-04-27T08:22:53.901Z,14.03
2023-04-27T08:25:22.731Z,13.63
2023-04-27T08:27:51.815Z,13.32
2023-04-27T08:30:21.259Z,13.15
2023-04-27T08:32:51.425Z,13.15
2023-04-27T08:35:20.280Z,13.29
2023-04-27T08:37:46.773Z,13.06
2023-04-27T08:40:16.198Z,12.99
2023-04-27T08:42:54.757Z,13.04
2023-04-27T08:45:25.607Z,12.72
2023-04-27T08:47:54.787Z,12.54
2023-04-27T08:50:24.146Z,12.54
2023-04-27T08:52:52.081Z,12.58
2023-04-27T08:55:21.305Z,12.60
2023-04-27T08:58:00.351Z,12.40
2023-04-27T09:00:27.300Z,12.47
2023-04-27T09:02:54.145Z,12.53
2023-04-27T09:05:22.701Z,12.35
2023-04-27T09:08:05.207Z,12.26
2023-04-27T09:10:44.412Z,12.51
2023-04-27T09:13:13.413Z,12.48
2023-04-27T09:15:51.299Z,12.36
2023-04-27T09:18:21.224Z,12.62
2023-04-27T09:20:52.855Z,12.68
2023-04-27T09:23:33.839Z,12.97
2023-04-27T09:26:03.052Z,13.12
2023-04-27T09:28:31.899Z,13.34
2023-04-27T09:31:02.288Z,13.37
2023-04-27T09:33:31.017Z,13.13
2023-04-27T09:36:01.472Z,13.22
2023-04-27T09:38:29.515Z,12.88
2023-04-27T09:40:58.282Z,13.19
2023-04-27T09:43:25.380Z,13.47
2023-04-27T09:45:51.882Z,13.42
2023-04-27T09:48:21.439Z,13.28
2023-04-27T09:50:49.609Z,13.40
2023-04-27T09:53:22.150Z,13.53
2023-04-27T09:56:07.133Z,13.34
2023-04-27T09:58:56.103Z,13.44
2023-04-27T10:01:28.962Z,13.87
2023-04-27T10:04:19.980Z,13.69
2023-04-27T10:06:57.925Z,13.63
2023-04-27T10:09:25.235Z,13.59
2023-04-27T10:11:57.769Z,13.78
2023-04-27T10:14:27.012Z,13.84
2023-04-27T10:16:54.695Z,13.88
2023-04-27T10:19:23.483Z,13.78
2023-04-27T10:22:07.984Z,13.59
2023-04-27T10:24:40.912Z,14.03
2023-04-27T10:27:09.548Z,13.99
2023-04-27T10:29:49.689Z,13.64
2023-04-27T10:32:21.383Z,13.66
2023-04-27T10:34:49.055Z,13.81
2023-04-27T10:37:22.117Z,13.93
2023-04-27T10:39:51.714Z,13.95
2023-04-27T10:42:30.427Z,13.82
2023-04-27T10:44:58.083Z,14.05
2023-04-27T10:47:27.373Z,13.84
2023-04-27T10:49:56.791Z,14.15
2023-04-27T10:52:26.636Z,14.46
2023-04-27T10:54:53.122Z,14.16
2023-04-27T10:57:19.640Z,14.25
2023-04-27T10:59:53.914Z,14.36
2023-04-27T11:02:29.300Z,14.25
2023-04-27T11:04:58.719Z,14.15
2023-04-27T11:07:29.152Z,14.40
2023-04-27T11:10:01.254Z,14.14
2023-04-27T11:12:34.288Z,14.61
2023-04-27T11:15:00.791Z,14.92
2023-04-27T11:17:35.300Z,14.97
2023-04-27T11:20:01.867Z,14.64
2023-04-27T11:22:28.567Z,14.42
2023-04-27T11:24:55.840Z,14.38
2023-04-27T11:27:36.872Z,14.56
2023-04-27T11:30:03.623Z,14.69
2023-04-27T11:32:32.581Z,14.93
2023-04-27T11:35:05.060Z,14.70
2023-04-27T11:37:34.099Z,14.70
2023-04-27T11:40:04.823Z,14.92
2023-04-27T11:42:34.180Z,15.26
2023-04-27T11:45:03.015Z,15.30
2023-04-27T11:47:32.652Z,14.51
2023-04-27T11:50:07.419Z,14.63
2023-04-27T11:52:36.207Z,14.71
2023-04-27T11:55:04.496Z,14.57
2023-04-27T11:57:33.366Z,14.59
2023-04-27T12:00:11.307Z,15.07
2023-04-27T12:02:38.917Z,15.33
2023-04-27T12:05:07.506Z,15.16
2023-04-27T12:07:34.381Z,15.25
2023-04-27T12:10:01.272Z,15.23
2023-04-27T12:12:30.762Z,15.03
2023-04-27T12:14:58.703Z,15.32
2023-04-27T12:17:27.653Z,15.40
2023-04-27T12:19:54.128Z,15.27
2023-04-27T12:22:21.015Z,15.12
2023-04-27T12:24:47.456Z,15.06
2023-04-27T12:27:13.939Z,15.31
2023-04-27T12:29:42.916Z,15.32
2023-04-27T12:32:09.461Z,15.01
2023-04-27T12:34:36.054Z,15.31
2023-04-27T12:37:02.527Z,15.47
2023-04-27T12:39:32.602Z,15.45
2023-04-27T12:42:02.350Z,15.55
2023-04-27T12:44:30.951Z,15.66
2023-04-27T12:47:02.378Z,15.28
2023-04-27T12:49:31.203Z,15.65
2023-04-27T12:51:58.202Z,15.64
2023-04-27T12:54:27.044Z,15.73
2023-04-27T12:56:55.956Z,16.00
2023-04-27T12:59:22.416Z,16.14
2023-04-27T13:01:49.049Z,16.24
2023-04-27T13:04:22.953Z,16.20
2023-04-27T13:06:49.973Z,16.08
2023-04-27T13:09:19.088Z,15.99
2023-04-27T13:11:45.714Z,16.27
2023-04-27T13:14:12.960Z,16.32
2023-04-27T13:16:40.405Z,15.52
2023-04-27T13:19:06.957Z,15.44
2023-04-27T13:21:36.094Z,15.36
2023-04-27T13:24:05.676Z,15.46
2023-04-27T13:26:34.867Z,15.11
2023-04-27T13:29:04.766Z,15.37
2023-04-27T13:31:33.035Z,15.46
2023-04-27T13:34:04.291Z,15.40
2023-04-27T13:36:32.963Z,15.34
2023-04-27T13:39:01.926Z,15.40
2023-04-27T13:41:31.357Z,15.46
2023-04-27T13:44:00.700Z,15.62
2023-04-27T13:46:29.597Z,15.74
2023-04-27T13:48:57.070Z,15.78
2023-04-27T13:51:23.918Z,15.49
2023-04-27T13:53:50.589Z,15.20
2023-04-27T13:56:19.300Z,14.88
2023-04-27T13:58:46.408Z,14.64
2023-04-27T14:01:12.944Z,14.94
2023-04-27T14:03:43.532Z,15.17
2023-04-27T14:06:12.615Z,15.20
2023-04-27T14:08:41.588Z,15.09
2023-04-27T14:11:08.066Z,15.15
2023-04-27T14:13:36.986Z,15.02
2023-04-27T14:16:08.815Z,14.62
2023-04-27T14:18:35.389Z,14.99
2023-04-27T14:21:04.675Z,15.03
2023-04-27T14:23:31.256Z,15.02
2023-04-27T14:26:02.354Z,15.01
2023-04-27T14:28:31.400Z,15.04
2023-04-27T14:30:57.823Z,15.19
2023-04-27T14:33:24.286Z,15.39
2023-04-27T14:35:53.981Z,15.38
2023-04-27T14:38:20.500Z,15.11
2023-04-27T14:40:46.975Z,15.09
2023-04-27T14:43:17.009Z,15.24
2023-04-27T14:45:54.017Z,15.10
2023-04-27T14:48:26.750Z,14.86
2023-04-27T14:50:53.556Z,14.84
2023-04-27T14:53:22.316Z,14.92
2023-04-27T14:55:48.855Z,15.07
2023-04-27T14:58:18.432Z,15.16
2023-04-27T15:00:47.313Z,15.11
2023-04-27T15:03:13.928Z,15.02
2023-04-27T15:05:45.086Z,14.97
2023-04-27T15:08:11.783Z,14.83
2023-04-27T15:10:38.261Z,14.70
2023-04-27T15:13:07.280Z,14.79
2023-04-27T15:15:33.766Z,14.72
2023-04-27T15:18:00.534Z,14.74
2023-04-27T15:20:27.179Z,14.62
2023-04-27T15:22:53.751Z,14.75
2023-04-27T15:25:20.320Z,14.87
2023-04-27T15:27:47.025Z,14.92
2023-04-27T15:30:16.764Z,14.81
2023-04-27T15:32:45.597Z,14.89
2023-04-27T15:35:14.380Z,14.67
2023-04-27T15:37:43.399Z,14.39
2023-04-27T15:40:12.646Z,14.22
2023-04-27T15:42:41.258Z,14.18
2023-04-27T15:45:11.397Z,14.27
2023-04-27T15:47:37.964Z,14.31
2023-04-27T15:50:05.354Z,14.20
2023-04-27T15:52:32.553Z,14.18
2023-04-27T15:55:01.518Z,13.91
2023-04-27T15:57:28.028Z,13.91
2023-04-27T15:59:54.477Z,13.94
2023-04-27T16:02:21.355Z,13.77
2023-04-27T16:04:49.033Z,13.67
2023-04-27T16:07:15.641Z,13.83
2023-04-27T16:09:42.268Z,13.90
2023-04-27T16:12:11.161Z,13.60
2023-04-27T16:14:40.411Z,13.54
2023-04-27T16:17:06.904Z,13.60
2023-04-27T16:19:33.417Z,13.56
2023-04-27T16:22:01.501Z,13.55
2023-04-27T16:24:34.009Z,13.69
2023-04-27T16:27:00.454Z,13.63
2023-04-27T16:29:26.922Z,13.51
2023-04-27T16:31:53.569Z,13.36
2023-04-27T16:34:22.308Z,13.32
2023-04-27T16:36:49.789Z,13.20
2023-04-27T16:39:18.901Z,13.21
2023-04-27T16:41:51.069Z,13.30
2023-04-27T16:44:17.572Z,13.34
2023-04-27T16:46:47.403Z,13.31
2023-04-27T16:49:16.430Z,13.27
2023-04-27T16:51:48.134Z,13.11
2023-04-27T16:54:17.572Z,12.99
2023-04-27T16:56:46.615Z,13.00
2023-04-27T16:59:15.434Z,12.96
2023-04-27T17:01:44.379Z,13.01
2023-04-27T17:04:11.151Z,12.93
2023-04-27T17:06:40.979Z,12.93
2023-04-27T17:09:08.316Z,12.94
2023-04-27T17:11:34.854Z,12.95
2023-04-27T17:14:01.309Z,12.97
2023-04-27T17:16:32.376Z,12.80
2023-04-27T17:19:01.605Z,12.70
2023-04-27T17:21:28.134Z,12.70
2023-04-27T17:23:56.768Z,12.72
2023-04-27T17:26:26.019Z,12.66
2023-04-27T17:28:53.017Z,12.58
2023-04-27T17:31:19.651Z,12.54
2023-04-27T17:33:49.438Z,12.43
2023-04-27T17:36:15.959Z,12.21
2023-04-27T17:38:42.610Z,12.09
2023-04-27T17:41:11.862Z,12.09
2023-04-27T17:43:38.335Z,12.08
2023-04-27T17:46:09.693Z,12.03
2023-04-27T17:48:36.911Z,11.82
2023-04-27T17:51:03.405Z,11.77
2023-04-27T17:53:34.418Z,11.72
2023-04-27T17:56:00.909Z,11.69
2023-04-27T17:58:28.087Z,11.72
2023-04-27T18:00:54.737Z,11.55
2023-04-27T18:03:22.003Z,11.49
2023-04-27T18:05:48.651Z,11.53
2023-04-27T18:08:20.439Z,11.48
2023-04-27T18:10:49.097Z,11.42
2023-04-27T18:13:17.982Z,11.42
2023-04-27T18:15:44.455Z,11.41
2023-04-27T18:18:11.981Z,11.39
2023-04-27T18:20:44.648Z,11.32
2023-04-27T18:23:13.445Z,11.33
2023-04-27T18:25:42.214Z,11.33
2023-04-27T18:28:11.685Z,11.31
2023-04-27T18:30:38.836Z,11.22
2023-04-27T18:33:09.063Z,11.21
2023-04-27T18:35:37.977Z,11.20
2023-04-27T18:38:06.801Z,11.17
2023-04-27T18:40:36.003Z,11.20
2023-04-27T18:43:02.614Z,11.18
2023-04-27T18:45:29.181Z,11.20
2023-04-27T18:47:57.914Z,11.21
2023-04-27T18:50:24.497Z,11.20
2023-04-27T18:52:53.032Z,11.16
2023-04-27T18:55:22.656Z,11.09
2023-04-27T18:57:49.152Z,11.03
2023-04-27T19:00:15.952Z,10.95
2023-04-27T19:02:45.285Z,10.91
2023-04-27T19:05:13.700Z,10.93
2023-04-27T19:07:40.883Z,10.87
2023-04-27T19:10:07.955Z,10.82
2023-04-27T19:12:34.421Z,10.79
2023-04-27T19:15:00.893Z,10.79
2023-04-27T19:17:29.822Z,10.78
2023-04-27T19:19:56.568Z,10.75
2023-04-27T19:22:23.135Z,10.70
2023-04-27T19:24:52.269Z,10.72
2023-04-27T19:27:21.005Z,10.72
2023-04-27T19:29:55.950Z,10.67
2023-04-27T19:32:27.375Z,10.57
2023-04-27T19:34:57.535Z,10.51
2023-04-27T19:37:27.363Z,10.50
2023-04-27T19:39:56.327Z,10.48
2023-04-27T19:42:25.012Z,10.52
2023-04-27T19:44:56.440Z,10.53
2023-04-27T19:47:25.221Z,10.54
2023-04-27T19:49:51.710Z,10.52
2023-04-27T19:52:18.206Z,10.55
2023-04-27T19:54:47.163Z,10.54
2023-04-27T19:57:16.639Z,10.52
2023-04-27T19:59:43.482Z,10.48
2023-04-27T20:02:09.929Z,10.46
2023-04-27T20:04:36.610Z,10.42
2023-04-27T20:07:05.705Z,10.37
2023-04-27T20:09:32.751Z,10.40
2023-04-27T20:11:59.291Z,10.35
2023-04-27T20:14:28.948Z,10.35
2023-04-27T20:16:55.424Z,10.36
2023-04-27T20:19:22.628Z,10.36
2023-04-27T20:21:51.569Z,10.31
2023-04-27T20:24:20.412Z,10.29
2023-04-27T20:26:49.310Z,10.23
2023-04-27T20:29:18.100Z,10.19
2023-04-27T20:31:49.516Z,10.16
2023-04-27T20:34:16.222Z,10.14
2023-04-27T20:36:45.367Z,10.16
2023-04-27T20:39:12.076Z,10.14
2023-04-27T20:41:41.747Z,10.09
2023-04-27T20:44:12.092Z,10.12
2023-04-27T20:46:41.497Z,10.07
2023-04-27T20:49:08.160Z,10.08
2023-04-27T20:51:34.603Z,10.06
2023-04-27T20:54:01.658Z,10.01
2023-04-27T20:56:33.643Z,9.97
2023-04-27T20:59:02.348Z,9.95
2023-04-27T21:01:28.900Z,9.93
2023-04-27T21:03:58.021Z,9.94
2023-04-27T21:06:27.051Z,9.86
2023-04-27T21:08:53.601Z,9.81
2023-04-27T21:11:20.516Z,9.71
2023-04-27T21:13:49.479Z,9.66
2023-04-27T21:16:16.185Z,9.63
2023-04-27T21:18:43.169Z,9.64
2023-04-27T21:21:11.951Z,9.60
2023-04-27T21:23:40.773Z,9.52
2023-04-27T21:26:08.144Z,9.48
2023-04-27T21:28:36.949Z,9.42
2023-04-27T21:31:06.531Z,9.39
2023-04-27T21:33:35.500Z,9.34
2023-04-27T21:36:03.927Z,9.35
2023-04-27T21:38:32.843Z,9.41
2023-04-27T21:40:59.367Z,9.43
2023-04-27T21:43:26.095Z,9.45
2023-04-27T21:45:52.707Z,9.45
2023-04-27T21:48:19.209Z,9.47
2023-04-27T21:50:47.917Z,9.49
2023-04-27T21:53:15.794Z,9.48
2023-04-27T21:55:42.328Z,9.44
2023-04-27T21:58:08.809Z,9.38
2023-04-27T22:00:39.879Z,9.39
2023-04-27T22:03:09.114Z,9.42
2023-04-27T22:05:38.186Z,9.43
2023-04-27T22:08:08.738Z,9.42
2023-04-27T22:10:40.099Z,9.44
2023-04-27T22:13:18.882Z,9.44
2023-04-27T22:15:47.518Z,9.39
2023-04-27T22:18:18.800Z,9.40
2023-04-27T22:20:50.105Z,9.39
2023-04-27T22:23:19.292Z,9.39
2023-04-27T22:25:46.434Z,9.38
2023-04-27T22:28:13.053Z,9.37
2023-04-27T22:30:45.137Z,9.40
2023-04-27T22:33:11.885Z,9.39
2023-04-27T22:35:38.673Z,9.40
2023-04-27T22:38:05.857Z,9.40
2023-04-27T22:40:37.148Z,9.38
2023-04-27T22:43:06.188Z,9.36
2023-04-27T22:45:32.658Z,9.36
2023-04-27T22:47:59.204Z,9.35
2023-04-27T22:50:28.035Z,9.32
2023-04-27T22:52:56.892Z,9.32
2023-04-27T22:55:23.444Z,9.30
2023-04-27T22:57:50.126Z,9.29
2023-04-27T23:00:18.128Z,9.27
2023-04-27T23:02:44.876Z,9.23
2023-04-27T23:05:12.487Z,9.23
2023-04-27T23:07:42.786Z,9.24
2023-04-27T23:10:10.372Z,9.24
2023-04-27T23:12:39.111Z,9.23
2023-04-27T23:15:05.933Z,9.23
2023-04-27T23:17:32.709Z,9.18
2023-04-27T23:20:11.242Z,9.17
2023-04-27T23:22:43.832Z,9.17
2023-04-27T23:25:12.812Z,9.14
2023-04-27T23:27:39.376Z,9.13
2023-04-27T23:30:06.569Z,9.11
2023-04-27T23:32:38.411Z,9.11
2023-04-27T23:35:05.702Z,9.13
2023-04-27T23:37:32.191Z,9.14
2023-04-27T23:40:01.115Z,9.11
2023-04-27T23:42:29.885Z,9.06
2023-04-27T23:44:56.796Z,9.02
2023-04-27T23:47:23.299Z,9.02
2023-04-27T23:49:49.796Z,9.02
2023-04-27T23:52:16.290Z,8.99
2023-04-27T23:54:47.590Z,8.95
2023-04-27T23:57:17.421Z,8.95
2023-04-27T23:59:43.880Z,8.93
